sensor_id;sensor_type;location;lat;lon;timestamp;P1;durP1;ratioP1;P2;durP2;ratioP2
19163;SDS011;9714;51.208;4.242;2022-10-30T00:00:25;25.20;;;7.23;;
19163;SDS011;9714;51.208;4.242;2022-10-30T00:02:53;25.67;;;7.43;;
19163;SDS011;9714;51.208;4.242;2022-10-30T00:05:20;21.07;;;7.70;;
19163;SDS011;9714;51.208;4.242;2022-10-30T00:07:48;23.53;;;8.17;;
19163;SDS011;9714;51.208;4.242;2022-10-30T00:10:15;19.93;;;7.20;;
19163;SDS011;9714;51.208;4.242;2022-10-30T00:12:42;23.10;;;7.77;;
19163;SDS011;9714;51.208;4.242;2022-10-30T00:15:10;22.10;;;6.80;;
19163;SDS011;9714;51.208;4.242;2022-10-30T00:17:37;21.87;;;8.40;;
19163;SDS011;9714;51.208;4.242;2022-10-30T00:20:06;21.23;;;7.97;;
19163;SDS011;9714;51.208;4.242;2022-10-30T00:22:34;25.53;;;6.87;;
19163;SDS011;9714;51.208;4.242;2022-10-30T00:25:02;24.13;;;6.50;;
19163;SDS011;9714;51.208;4.242;2022-10-30T00:27:29;19.07;;;6.80;;
19163;SDS011;9714;51.208;4.242;2022-10-30T00:29:56;21.97;;;8.47;;
19163;SDS011;9714;51.208;4.242;2022-10-30T00:32:23;18.87;;;8.00;;
19163;SDS011;9714;51.208;4.242;2022-10-30T00:34:50;26.87;;;7.83;;
19163;SDS011;9714;51.208;4.242;2022-10-30T00:37:18;30.50;;;7.90;;
19163;SDS011;9714;51.208;4.242;2022-10-30T00:39:45;17.47;;;6.73;;
19163;SDS011;9714;51.208;4.242;2022-10-30T00:42:13;27.63;;;7.30;;
19163;SDS011;9714;51.208;4.242;2022-10-30T00:44:42;20.70;;;6.60;;
19163;SDS011;9714;51.208;4.242;2022-10-30T00:47:16;27.07;;;8.00;;
19163;SDS011;9714;51.208;4.242;2022-10-30T00:49:49;21.77;;;7.93;;
19163;SDS011;9714;51.208;4.242;2022-10-30T00:52:21;18.87;;;7.50;;
19163;SDS011;9714;51.208;4.242;2022-10-30T00:54:50;17.80;;;7.30;;
19163;SDS011;9714;51.208;4.242;2022-10-30T00:57:19;23.23;;;7.67;;
19163;SDS011;9714;51.208;4.242;2022-10-30T00:59:46;22.30;;;6.77;;
19163;SDS011;9714;51.208;4.242;2022-10-30T01:02:14;24.27;;;7.43;;
19163;SDS011;9714;51.208;4.242;2022-10-30T01:04:42;16.20;;;6.67;;
19163;SDS011;9714;51.208;4.242;2022-10-30T01:07:11;25.17;;;6.93;;
19163;SDS011;9714;51.208;4.242;2022-10-30T01:09:42;18.80;;;7.40;;
19163;SDS011;9714;51.208;4.242;2022-10-30T01:12:12;27.77;;;7.07;;
19163;SDS011;9714;51.208;4.242;2022-10-30T01:14:39;20.90;;;6.53;;
19163;SDS011;9714;51.208;4.242;2022-10-30T01:17:16;23.87;;;7.73;;
19163;SDS011;9714;51.208;4.242;2022-10-30T01:20:15;21.77;;;7.03;;
19163;SDS011;9714;51.208;4.242;2022-10-30T01:22:57;24.23;;;7.83;;
19163;SDS011;9714;51.208;4.242;2022-10-30T01:25:37;29.93;;;7.87;;
19163;SDS011;9714;51.208;4.242;2022-10-30T01:28:19;21.10;;;7.50;;
19163;SDS011;9714;51.208;4.242;2022-10-30T01:31:02;24.53;;;7.33;;
19163;SDS011;9714;51.208;4.242;2022-10-30T01:33:43;18.77;;;6.60;;
19163;SDS011;9714;51.208;4.242;2022-10-30T01:36:23;21.17;;;7.23;;
19163;SDS011;9714;51.208;4.242;2022-10-30T01:38:55;25.70;;;8.50;;
19163;SDS011;9714;51.208;4.242;2022-10-30T01:41:27;17.73;;;8.23;;
19163;SDS011;9714;51.208;4.242;2022-10-30T01:43:55;21.43;;;7.23;;
19163;SDS011;9714;51.208;4.242;2022-10-30T01:49:28;23.07;;;7.33;;
19163;SDS011;9714;51.208;4.242;2022-10-30T01:52:03;28.27;;;8.13;;
19163;SDS011;9714;51.208;4.242;2022-10-30T01:54:39;29.97;;;7.53;;
19163;SDS011;9714;51.208;4.242;2022-10-30T01:57:15;23.90;;;8.13;;
19163;SDS011;9714;51.208;4.242;2022-10-30T01:59:49;20.87;;;7.50;;
19163;SDS011;9714;51.208;4.242;2022-10-30T02:02:21;30.70;;;8.67;;
19163;SDS011;9714;51.208;4.242;2022-10-30T02:04:50;19.10;;;6.93;;
19163;SDS011;9714;51.208;4.242;2022-10-30T02:07:17;30.47;;;8.23;;
19163;SDS011;9714;51.208;4.242;2022-10-30T02:09:44;19.17;;;7.60;;
19163;SDS011;9714;51.208;4.242;2022-10-30T02:12:14;25.40;;;8.33;;
19163;SDS011;9714;51.208;4.242;2022-10-30T02:14:43;20.53;;;7.20;;
19163;SDS011;9714;51.208;4.242;2022-10-30T02:17:14;20.37;;;7.90;;
19163;SDS011;9714;51.208;4.242;2022-10-30T02:19:41;21.97;;;7.40;;
19163;SDS011;9714;51.208;4.242;2022-10-30T02:22:10;27.77;;;8.43;;
19163;SDS011;9714;51.208;4.242;2022-10-30T02:24:37;27.43;;;7.57;;
19163;SDS011;9714;51.208;4.242;2022-10-30T02:27:04;20.40;;;7.30;;
19163;SDS011;9714;51.208;4.242;2022-10-30T02:29:31;30.07;;;8.07;;
19163;SDS011;9714;51.208;4.242;2022-10-30T02:31:58;27.80;;;8.20;;
19163;SDS011;9714;51.208;4.242;2022-10-30T02:34:25;27.40;;;8.27;;
19163;SDS011;9714;51.208;4.242;2022-10-30T02:36:51;23.30;;;7.63;;
19163;SDS011;9714;51.208;4.242;2022-10-30T02:39:20;20.67;;;6.97;;
19163;SDS011;9714;51.208;4.242;2022-10-30T02:41:47;19.40;;;7.23;;
19163;SDS011;9714;51.208;4.242;2022-10-30T02:44:14;20.77;;;8.20;;
19163;SDS011;9714;51.208;4.242;2022-10-30T02:46:40;25.90;;;7.50;;
19163;SDS011;9714;51.208;4.242;2022-10-30T02:49:13;23.87;;;8.40;;
19163;SDS011;9714;51.208;4.242;2022-10-30T02:51:40;23.27;;;8.07;;
19163;SDS011;9714;51.208;4.242;2022-10-30T02:54:07;23.20;;;8.07;;
19163;SDS011;9714;51.208;4.242;2022-10-30T02:56:36;24.20;;;7.80;;
19163;SDS011;9714;51.208;4.242;2022-10-30T02:59:05;23.80;;;7.63;;
19163;SDS011;9714;51.208;4.242;2022-10-30T03:01:32;22.33;;;8.03;;
19163;SDS011;9714;51.208;4.242;2022-10-30T03:04:00;21.37;;;7.83;;
19163;SDS011;9714;51.208;4.242;2022-10-30T03:06:27;28.67;;;7.70;;
19163;SDS011;9714;51.208;4.242;2022-10-30T03:08:54;22.87;;;7.87;;
19163;SDS011;9714;51.208;4.242;2022-10-30T03:11:21;23.10;;;8.57;;
19163;SDS011;9714;51.208;4.242;2022-10-30T03:13:49;24.63;;;8.03;;
19163;SDS011;9714;51.208;4.242;2022-10-30T03:16:17;25.27;;;7.90;;
19163;SDS011;9714;51.208;4.242;2022-10-30T03:18:45;20.40;;;8.27;;
19163;SDS011;9714;51.208;4.242;2022-10-30T03:21:14;23.53;;;7.83;;
19163;SDS011;9714;51.208;4.242;2022-10-30T03:23:43;26.53;;;7.97;;
19163;SDS011;9714;51.208;4.242;2022-10-30T03:26:10;28.07;;;8.40;;
19163;SDS011;9714;51.208;4.242;2022-10-30T03:28:37;23.37;;;8.83;;
19163;SDS011;9714;51.208;4.242;2022-10-30T03:31:06;24.67;;;8.17;;
19163;SDS011;9714;51.208;4.242;2022-10-30T03:33:35;29.27;;;9.37;;
19163;SDS011;9714;51.208;4.242;2022-10-30T03:36:03;25.27;;;9.00;;
19163;SDS011;9714;51.208;4.242;2022-10-30T03:38:31;23.87;;;8.93;;
19163;SDS011;9714;51.208;4.242;2022-10-30T03:40:58;26.73;;;8.60;;
19163;SDS011;9714;51.208;4.242;2022-10-30T03:43:25;32.03;;;8.77;;
19163;SDS011;9714;51.208;4.242;2022-10-30T03:45:53;25.37;;;9.17;;
19163;SDS011;9714;51.208;4.242;2022-10-30T03:48:22;22.30;;;7.90;;
19163;SDS011;9714;51.208;4.242;2022-10-30T03:50:52;26.33;;;8.33;;
19163;SDS011;9714;51.208;4.242;2022-10-30T03:53:20;21.70;;;8.03;;
19163;SDS011;9714;51.208;4.242;2022-10-30T03:55:48;21.53;;;8.13;;
19163;SDS011;9714;51.208;4.242;2022-10-30T03:58:15;23.73;;;8.00;;
19163;SDS011;9714;51.208;4.242;2022-10-30T04:00:42;21.13;;;7.50;;
19163;SDS011;9714;51.208;4.242;2022-10-30T04:03:09;25.63;;;9.23;;
19163;SDS011;9714;51.208;4.242;2022-10-30T04:05:38;32.83;;;9.10;;
19163;SDS011;9714;51.208;4.242;2022-10-30T04:08:05;30.47;;;9.40;;
19163;SDS011;9714;51.208;4.242;2022-10-30T04:10:35;24.60;;;9.20;;
19163;SDS011;9714;51.208;4.242;2022-10-30T04:13:03;30.63;;;9.40;;
19163;SDS011;9714;51.208;4.242;2022-10-30T04:15:32;26.97;;;8.47;;
19163;SDS011;9714;51.208;4.242;2022-10-30T04:17:59;24.53;;;8.27;;
19163;SDS011;9714;51.208;4.242;2022-10-30T04:20:26;26.13;;;8.57;;
19163;SDS011;9714;51.208;4.242;2022-10-30T04:22:59;38.43;;;9.53;;
19163;SDS011;9714;51.208;4.242;2022-10-30T04:25:27;24.10;;;8.30;;
19163;SDS011;9714;51.208;4.242;2022-10-30T04:27:54;29.73;;;9.80;;
19163;SDS011;9714;51.208;4.242;2022-10-30T04:30:21;26.20;;;9.00;;
19163;SDS011;9714;51.208;4.242;2022-10-30T04:32:49;22.40;;;8.37;;
19163;SDS011;9714;51.208;4.242;2022-10-30T04:35:19;22.73;;;9.17;;
19163;SDS011;9714;51.208;4.242;2022-10-30T04:37:51;21.83;;;7.83;;
19163;SDS011;9714;51.208;4.242;2022-10-30T04:40:19;26.57;;;8.30;;
19163;SDS011;9714;51.208;4.242;2022-10-30T04:42:47;24.43;;;9.50;;
19163;SDS011;9714;51.208;4.242;2022-10-30T04:45:14;26.73;;;8.20;;
19163;SDS011;9714;51.208;4.242;2022-10-30T04:47:42;22.27;;;9.03;;
19163;SDS011;9714;51.208;4.242;2022-10-30T04:50:09;25.70;;;9.07;;
19163;SDS011;9714;51.208;4.242;2022-10-30T04:52:37;20.90;;;8.03;;
19163;SDS011;9714;51.208;4.242;2022-10-30T04:55:04;26.90;;;9.27;;
19163;SDS011;9714;51.208;4.242;2022-10-30T04:57:33;32.03;;;9.80;;
19163;SDS011;9714;51.208;4.242;2022-10-30T05:00:01;22.13;;;8.60;;
19163;SDS011;9714;51.208;4.242;2022-10-30T05:02:29;21.40;;;9.37;;
19163;SDS011;9714;51.208;4.242;2022-10-30T05:04:56;23.10;;;8.40;;
19163;SDS011;9714;51.208;4.242;2022-10-30T05:07:22;19.67;;;9.07;;
19163;SDS011;9714;51.208;4.242;2022-10-30T05:09:49;23.43;;;8.43;;
19163;SDS011;9714;51.208;4.242;2022-10-30T05:12:16;24.13;;;8.70;;
19163;SDS011;9714;51.208;4.242;2022-10-30T05:14:46;23.70;;;9.17;;
19163;SDS011;9714;51.208;4.242;2022-10-30T05:17:13;22.67;;;8.50;;
19163;SDS011;9714;51.208;4.242;2022-10-30T05:19:39;22.33;;;8.97;;
19163;SDS011;9714;51.208;4.242;2022-10-30T05:22:06;27.93;;;8.60;;
19163;SDS011;9714;51.208;4.242;2022-10-30T05:24:34;24.33;;;9.30;;
19163;SDS011;9714;51.208;4.242;2022-10-30T05:27:01;23.33;;;8.50;;
19163;SDS011;9714;51.208;4.242;2022-10-30T05:29:28;27.13;;;9.57;;
19163;SDS011;9714;51.208;4.242;2022-10-30T05:31:56;31.80;;;10.63;;
19163;SDS011;9714;51.208;4.242;2022-10-30T05:34:23;28.17;;;9.23;;
19163;SDS011;9714;51.208;4.242;2022-10-30T05:36:50;24.97;;;8.87;;
19163;SDS011;9714;51.208;4.242;2022-10-30T05:39:17;26.00;;;9.03;;
19163;SDS011;9714;51.208;4.242;2022-10-30T05:41:44;24.30;;;9.43;;
19163;SDS011;9714;51.208;4.242;2022-10-30T05:44:10;23.23;;;8.47;;
19163;SDS011;9714;51.208;4.242;2022-10-30T05:46:37;25.17;;;9.33;;
19163;SDS011;9714;51.208;4.242;2022-10-30T05:49:06;22.03;;;9.43;;
19163;SDS011;9714;51.208;4.242;2022-10-30T05:51:33;29.03;;;10.23;;
19163;SDS011;9714;51.208;4.242;2022-10-30T05:54:00;26.40;;;8.70;;
19163;SDS011;9714;51.208;4.242;2022-10-30T05:56:27;25.97;;;9.93;;
19163;SDS011;9714;51.208;4.242;2022-10-30T05:58:54;28.00;;;9.30;;
19163;SDS011;9714;51.208;4.242;2022-10-30T06:01:21;23.60;;;9.63;;
19163;SDS011;9714;51.208;4.242;2022-10-30T06:03:48;19.90;;;9.43;;
19163;SDS011;9714;51.208;4.242;2022-10-30T06:06:16;29.43;;;10.17;;
19163;SDS011;9714;51.208;4.242;2022-10-30T06:08:43;24.17;;;9.33;;
19163;SDS011;9714;51.208;4.242;2022-10-30T06:11:10;23.40;;;10.00;;
19163;SDS011;9714;51.208;4.242;2022-10-30T06:13:37;27.70;;;8.87;;
19163;SDS011;9714;51.208;4.242;2022-10-30T06:16:05;21.30;;;9.17;;
19163;SDS011;9714;51.208;4.242;2022-10-30T06:18:32;27.10;;;9.73;;
19163;SDS011;9714;51.208;4.242;2022-10-30T06:20:59;24.23;;;8.87;;
19163;SDS011;9714;51.208;4.242;2022-10-30T06:23:27;30.47;;;9.53;;
19163;SDS011;9714;51.208;4.242;2022-10-30T06:25:54;24.77;;;9.00;;
19163;SDS011;9714;51.208;4.242;2022-10-30T06:28:21;26.57;;;9.00;;
19163;SDS011;9714;51.208;4.242;2022-10-30T06:30:49;22.07;;;9.93;;
19163;SDS011;9714;51.208;4.242;2022-10-30T06:33:17;26.00;;;9.30;;
19163;SDS011;9714;51.208;4.242;2022-10-30T06:35:47;23.40;;;9.23;;
19163;SDS011;9714;51.208;4.242;2022-10-30T06:38:15;24.67;;;8.67;;
19163;SDS011;9714;51.208;4.242;2022-10-30T06:40:43;27.10;;;9.67;;
19163;SDS011;9714;51.208;4.242;2022-10-30T06:43:10;28.43;;;9.33;;
19163;SDS011;9714;51.208;4.242;2022-10-30T06:45:38;24.03;;;8.40;;
19163;SDS011;9714;51.208;4.242;2022-10-30T06:48:05;27.77;;;10.00;;
19163;SDS011;9714;51.208;4.242;2022-10-30T06:50:33;32.47;;;9.43;;
19163;SDS011;9714;51.208;4.242;2022-10-30T06:53:00;22.37;;;9.10;;
19163;SDS011;9714;51.208;4.242;2022-10-30T06:55:27;24.13;;;9.60;;
19163;SDS011;9714;51.208;4.242;2022-10-30T06:57:55;21.17;;;8.33;;
19163;SDS011;9714;51.208;4.242;2022-10-30T07:00:22;19.20;;;8.70;;
19163;SDS011;9714;51.208;4.242;2022-10-30T07:02:56;28.70;;;8.60;;
19163;SDS011;9714;51.208;4.242;2022-10-30T07:05:24;21.27;;;9.23;;
19163;SDS011;9714;51.208;4.242;2022-10-30T07:07:54;26.23;;;8.90;;
19163;SDS011;9714;51.208;4.242;2022-10-30T07:10:25;25.13;;;8.90;;
19163;SDS011;9714;51.208;4.242;2022-10-30T07:12:52;23.60;;;9.27;;
19163;SDS011;9714;51.208;4.242;2022-10-30T07:15:21;24.40;;;9.13;;
19163;SDS011;9714;51.208;4.242;2022-10-30T07:17:52;25.77;;;9.33;;
19163;SDS011;9714;51.208;4.242;2022-10-30T07:20:20;20.13;;;8.60;;
19163;SDS011;9714;51.208;4.242;2022-10-30T07:22:48;23.97;;;9.83;;
19163;SDS011;9714;51.208;4.242;2022-10-30T07:25:15;27.90;;;9.30;;
19163;SDS011;9714;51.208;4.242;2022-10-30T07:27:42;27.63;;;10.17;;
19163;SDS011;9714;51.208;4.242;2022-10-30T07:30:12;23.90;;;9.70;;
19163;SDS011;9714;51.208;4.242;2022-10-30T07:32:43;23.37;;;9.13;;
19163;SDS011;9714;51.208;4.242;2022-10-30T07:35:11;23.60;;;8.37;;
19163;SDS011;9714;51.208;4.242;2022-10-30T07:37:39;28.60;;;9.00;;
19163;SDS011;9714;51.208;4.242;2022-10-30T07:40:06;25.43;;;9.10;;
19163;SDS011;9714;51.208;4.242;2022-10-30T07:42:34;27.90;;;9.13;;
19163;SDS011;9714;51.208;4.242;2022-10-30T07:45:01;24.53;;;8.77;;
19163;SDS011;9714;51.208;4.242;2022-10-30T07:47:29;19.57;;;8.73;;
19163;SDS011;9714;51.208;4.242;2022-10-30T07:49:57;26.03;;;10.10;;
19163;SDS011;9714;51.208;4.242;2022-10-30T07:52:24;20.93;;;8.17;;
19163;SDS011;9714;51.208;4.242;2022-10-30T07:54:51;27.67;;;9.03;;
19163;SDS011;9714;51.208;4.242;2022-10-30T07:57:18;22.50;;;9.40;;
19163;SDS011;9714;51.208;4.242;2022-10-30T07:59:45;28.93;;;9.40;;
19163;SDS011;9714;51.208;4.242;2022-10-30T08:02:11;22.60;;;8.17;;
19163;SDS011;9714;51.208;4.242;2022-10-30T08:04:38;20.23;;;7.67;;
19163;SDS011;9714;51.208;4.242;2022-10-30T08:07:07;21.90;;;7.53;;
19163;SDS011;9714;51.208;4.242;2022-10-30T08:09:34;27.93;;;8.60;;
19163;SDS011;9714;51.208;4.242;2022-10-30T08:12:00;24.13;;;7.57;;
19163;SDS011;9714;51.208;4.242;2022-10-30T08:14:27;24.53;;;8.17;;
19163;SDS011;9714;51.208;4.242;2022-10-30T08:16:54;25.30;;;9.07;;
19163;SDS011;9714;51.208;4.242;2022-10-30T08:19:21;24.70;;;8.33;;
19163;SDS011;9714;51.208;4.242;2022-10-30T08:21:48;21.73;;;8.43;;
19163;SDS011;9714;51.208;4.242;2022-10-30T08:24:16;17.93;;;8.00;;
19163;SDS011;9714;51.208;4.242;2022-10-30T08:26:43;20.87;;;7.87;;
19163;SDS011;9714;51.208;4.242;2022-10-30T08:29:10;20.80;;;8.60;;
19163;SDS011;9714;51.208;4.242;2022-10-30T08:31:37;22.23;;;7.53;;
19163;SDS011;9714;51.208;4.242;2022-10-30T08:34:04;19.60;;;7.40;;
19163;SDS011;9714;51.208;4.242;2022-10-30T08:36:30;29.55;;;8.38;;
19163;SDS011;9714;51.208;4.242;2022-10-30T08:38:57;25.60;;;6.40;;
19163;SDS011;9714;51.208;4.242;2022-10-30T08:41:27;23.38;;;8.18;;
19163;SDS011;9714;51.208;4.242;2022-10-30T08:43:54;19.95;;;7.32;;
19163;SDS011;9714;51.208;4.242;2022-10-30T08:46:21;20.25;;;6.78;;
19163;SDS011;9714;51.208;4.242;2022-10-30T08:48:53;18.45;;;7.40;;
19163;SDS011;9714;51.208;4.242;2022-10-30T08:51:20;26.95;;;7.88;;
19163;SDS011;9714;51.208;4.242;2022-10-30T08:53:48;20.27;;;6.57;;
19163;SDS011;9714;51.208;4.242;2022-10-30T08:56:17;28.13;;;7.85;;
19163;SDS011;9714;51.208;4.242;2022-10-30T08:58:46;21.20;;;6.40;;
19163;SDS011;9714;51.208;4.242;2022-10-30T09:01:15;30.38;;;7.22;;
19163;SDS011;9714;51.208;4.242;2022-10-30T09:03:43;21.10;;;5.95;;
19163;SDS011;9714;51.208;4.242;2022-10-30T09:06:27;19.58;;;6.82;;
19163;SDS011;9714;51.208;4.242;2022-10-30T09:08:55;22.73;;;6.22;;
19163;SDS011;9714;51.208;4.242;2022-10-30T09:11:22;19.50;;;6.32;;
19163;SDS011;9714;51.208;4.242;2022-10-30T09:13:50;22.02;;;6.70;;
19163;SDS011;9714;51.208;4.242;2022-10-30T09:16:18;17.55;;;6.30;;
19163;SDS011;9714;51.208;4.242;2022-10-30T09:18:45;22.58;;;5.97;;
19163;SDS011;9714;51.208;4.242;2022-10-30T09:21:12;20.98;;;6.13;;
19163;SDS011;9714;51.208;4.242;2022-10-30T09:23:41;25.45;;;6.32;;
19163;SDS011;9714;51.208;4.242;2022-10-30T09:26:08;23.00;;;5.35;;
19163;SDS011;9714;51.208;4.242;2022-10-30T09:28:35;19.25;;;6.18;;
19163;SDS011;9714;51.208;4.242;2022-10-30T09:31:10;17.08;;;5.80;;
19163;SDS011;9714;51.208;4.242;2022-10-30T09:33:38;17.80;;;5.68;;
19163;SDS011;9714;51.208;4.242;2022-10-30T09:36:05;18.17;;;6.32;;
19163;SDS011;9714;51.208;4.242;2022-10-30T09:38:32;23.08;;;6.35;;
19163;SDS011;9714;51.208;4.242;2022-10-30T09:43:55;24.55;;;7.03;;
19163;SDS011;9714;51.208;4.242;2022-10-30T09:46:40;15.68;;;6.10;;
19163;SDS011;9714;51.208;4.242;2022-10-30T09:49:26;18.90;;;6.03;;
19163;SDS011;9714;51.208;4.242;2022-10-30T09:52:12;21.02;;;5.55;;
19163;SDS011;9714;51.208;4.242;2022-10-30T09:54:50;17.08;;;5.75;;
19163;SDS011;9714;51.208;4.242;2022-10-30T09:57:27;16.23;;;6.07;;
19163;SDS011;9714;51.208;4.242;2022-10-30T10:00:02;27.23;;;6.43;;
19163;SDS011;9714;51.208;4.242;2022-10-30T10:02:34;17.95;;;6.13;;
19163;SDS011;9714;51.208;4.242;2022-10-30T10:05:04;23.05;;;6.32;;
19163;SDS011;9714;51.208;4.242;2022-10-30T10:07:40;17.88;;;5.88;;
19163;SDS011;9714;51.208;4.242;2022-10-30T10:10:15;21.27;;;6.65;;
19163;SDS011;9714;51.208;4.242;2022-10-30T10:12:47;18.58;;;6.28;;
19163;SDS011;9714;51.208;4.242;2022-10-30T10:15:19;16.63;;;5.70;;
19163;SDS011;9714;51.208;4.242;2022-10-30T10:17:51;18.85;;;5.80;;
19163;SDS011;9714;51.208;4.242;2022-10-30T10:20:24;17.95;;;5.72;;
19163;SDS011;9714;51.208;4.242;2022-10-30T10:22:55;24.90;;;7.20;;
19163;SDS011;9714;51.208;4.242;2022-10-30T10:25:24;22.08;;;6.03;;
19163;SDS011;9714;51.208;4.242;2022-10-30T10:27:56;21.20;;;5.60;;
19163;SDS011;9714;51.208;4.242;2022-10-30T10:30:33;17.85;;;5.43;;
19163;SDS011;9714;51.208;4.242;2022-10-30T10:36:06;21.90;;;7.00;;
19163;SDS011;9714;51.208;4.242;2022-10-30T10:38:49;21.38;;;6.20;;
19163;SDS011;9714;51.208;4.242;2022-10-30T10:41:29;20.15;;;6.35;;
19163;SDS011;9714;51.208;4.242;2022-10-30T10:44:05;17.58;;;5.82;;
19163;SDS011;9714;51.208;4.242;2022-10-30T10:46:46;18.90;;;6.40;;
19163;SDS011;9714;51.208;4.242;2022-10-30T10:49:29;23.85;;;6.70;;
19163;SDS011;9714;51.208;4.242;2022-10-30T10:52:07;16.40;;;5.55;;
19163;SDS011;9714;51.208;4.242;2022-10-30T10:54:38;24.40;;;5.93;;
19163;SDS011;9714;51.208;4.242;2022-10-30T10:57:11;19.73;;;6.97;;
19163;SDS011;9714;51.208;4.242;2022-10-30T11:00:00;19.92;;;6.82;;
19163;SDS011;9714;51.208;4.242;2022-10-30T11:02:34;18.20;;;7.82;;
19163;SDS011;9714;51.208;4.242;2022-10-30T11:05:07;24.88;;;7.10;;
19163;SDS011;9714;51.208;4.242;2022-10-30T11:07:46;24.90;;;8.10;;
19163;SDS011;9714;51.208;4.242;2022-10-30T11:10:16;25.85;;;8.00;;
19163;SDS011;9714;51.208;4.242;2022-10-30T11:12:44;23.10;;;7.03;;
19163;SDS011;9714;51.208;4.242;2022-10-30T11:15:18;20.10;;;7.90;;
19163;SDS011;9714;51.208;4.242;2022-10-30T11:17:53;18.73;;;7.35;;
19163;SDS011;9714;51.208;4.242;2022-10-30T11:20:32;25.50;;;7.65;;
19163;SDS011;9714;51.208;4.242;2022-10-30T11:23:03;27.60;;;7.78;;
19163;SDS011;9714;51.208;4.242;2022-10-30T11:26:08;18.77;;;6.90;;
19163;SDS011;9714;51.208;4.242;2022-10-30T11:29:00;21.83;;;8.50;;
19163;SDS011;9714;51.208;4.242;2022-10-30T11:31:30;24.40;;;7.68;;
19163;SDS011;9714;51.208;4.242;2022-10-30T11:34:20;18.63;;;7.25;;
19163;SDS011;9714;51.208;4.242;2022-10-30T11:36:58;23.77;;;7.50;;
19163;SDS011;9714;51.208;4.242;2022-10-30T11:39:25;26.35;;;7.75;;
19163;SDS011;9714;51.208;4.242;2022-10-30T11:41:55;23.40;;;8.00;;
19163;SDS011;9714;51.208;4.242;2022-10-30T11:44:25;21.25;;;7.35;;
19163;SDS011;9714;51.208;4.242;2022-10-30T11:46:55;18.58;;;7.45;;
19163;SDS011;9714;51.208;4.242;2022-10-30T11:49:24;22.48;;;7.05;;
19163;SDS011;9714;51.208;4.242;2022-10-30T11:51:55;22.20;;;7.18;;
19163;SDS011;9714;51.208;4.242;2022-10-30T11:54:24;22.63;;;7.15;;
19163;SDS011;9714;51.208;4.242;2022-10-30T11:56:52;22.50;;;7.72;;
19163;SDS011;9714;51.208;4.242;2022-10-30T11:59:20;19.38;;;7.70;;
19163;SDS011;9714;51.208;4.242;2022-10-30T12:01:59;16.55;;;6.85;;
19163;SDS011;9714;51.208;4.242;2022-10-30T12:04:27;26.70;;;7.47;;
19163;SDS011;9714;51.208;4.242;2022-10-30T12:07:06;24.98;;;7.65;;
19163;SDS011;9714;51.208;4.242;2022-10-30T12:09:45;16.92;;;7.03;;
19163;SDS011;9714;51.208;4.242;2022-10-30T12:12:18;25.40;;;7.10;;
19163;SDS011;9714;51.208;4.242;2022-10-30T12:14:48;22.48;;;6.97;;
19163;SDS011;9714;51.208;4.242;2022-10-30T12:17:15;28.23;;;6.97;;
19163;SDS011;9714;51.208;4.242;2022-10-30T12:19:44;22.08;;;7.10;;
19163;SDS011;9714;51.208;4.242;2022-10-30T12:22:22;19.45;;;7.20;;
19163;SDS011;9714;51.208;4.242;2022-10-30T12:24:52;24.02;;;7.07;;
19163;SDS011;9714;51.208;4.242;2022-10-30T12:27:18;20.58;;;6.68;;
19163;SDS011;9714;51.208;4.242;2022-10-30T12:29:49;20.10;;;6.63;;
19163;SDS011;9714;51.208;4.242;2022-10-30T12:32:25;21.42;;;7.65;;
19163;SDS011;9714;51.208;4.242;2022-10-30T12:34:59;21.45;;;6.85;;
19163;SDS011;9714;51.208;4.242;2022-10-30T12:37:31;20.88;;;7.90;;
19163;SDS011;9714;51.208;4.242;2022-10-30T12:40:06;23.80;;;7.38;;
19163;SDS011;9714;51.208;4.242;2022-10-30T12:42:41;19.98;;;6.57;;
19163;SDS011;9714;51.208;4.242;2022-10-30T12:45:14;20.75;;;7.25;;
19163;SDS011;9714;51.208;4.242;2022-10-30T12:47:47;15.68;;;6.50;;
19163;SDS011;9714;51.208;4.242;2022-10-30T12:50:18;21.65;;;6.97;;
19163;SDS011;9714;51.208;4.242;2022-10-30T12:52:50;20.00;;;6.57;;
19163;SDS011;9714;51.208;4.242;2022-10-30T12:55:23;13.88;;;6.20;;
19163;SDS011;9714;51.208;4.242;2022-10-30T12:57:55;19.45;;;6.72;;
19163;SDS011;9714;51.208;4.242;2022-10-30T13:00:28;20.33;;;7.35;;
19163;SDS011;9714;51.208;4.242;2022-10-30T13:02:59;23.55;;;7.10;;
19163;SDS011;9714;51.208;4.242;2022-10-30T13:05:32;16.55;;;6.80;;
19163;SDS011;9714;51.208;4.242;2022-10-30T13:08:09;24.33;;;7.40;;
19163;SDS011;9714;51.208;4.242;2022-10-30T13:10:45;28.58;;;7.50;;
19163;SDS011;9714;51.208;4.242;2022-10-30T13:13:16;18.42;;;6.93;;
19163;SDS011;9714;51.208;4.242;2022-10-30T13:15:49;30.35;;;7.63;;
19163;SDS011;9714;51.208;4.242;2022-10-30T13:18:18;19.88;;;6.90;;
19163;SDS011;9714;51.208;4.242;2022-10-30T13:21:00;19.58;;;6.93;;
19163;SDS011;9714;51.208;4.242;2022-10-30T13:23:39;20.00;;;6.85;;
19163;SDS011;9714;51.208;4.242;2022-10-30T13:26:16;23.48;;;6.57;;
19163;SDS011;9714;51.208;4.242;2022-10-30T13:28:53;24.00;;;6.63;;
19163;SDS011;9714;51.208;4.242;2022-10-30T13:31:28;19.33;;;6.70;;
19163;SDS011;9714;51.208;4.242;2022-10-30T13:34:03;19.98;;;6.18;;
19163;SDS011;9714;51.208;4.242;2022-10-30T13:36:37;17.65;;;6.15;;
19163;SDS011;9714;51.208;4.242;2022-10-30T13:39:13;19.35;;;6.47;;
19163;SDS011;9714;51.208;4.242;2022-10-30T13:41:52;20.73;;;6.40;;
19163;SDS011;9714;51.208;4.242;2022-10-30T13:44:28;19.13;;;6.95;;
19163;SDS011;9714;51.208;4.242;2022-10-30T13:47:06;17.25;;;7.10;;
19163;SDS011;9714;51.208;4.242;2022-10-30T13:49:47;19.60;;;6.35;;
19163;SDS011;9714;51.208;4.242;2022-10-30T13:52:21;20.90;;;8.02;;
19163;SDS011;9714;51.208;4.242;2022-10-30T13:54:52;20.50;;;7.72;;
19163;SDS011;9714;51.208;4.242;2022-10-30T13:57:28;25.38;;;8.45;;
19163;SDS011;9714;51.208;4.242;2022-10-30T14:00:04;28.73;;;7.95;;
19163;SDS011;9714;51.208;4.242;2022-10-30T14:02:40;21.67;;;7.43;;
19163;SDS011;9714;51.208;4.242;2022-10-30T14:05:15;25.25;;;8.88;;
19163;SDS011;9714;51.208;4.242;2022-10-30T14:07:51;20.65;;;8.15;;
19163;SDS011;9714;51.208;4.242;2022-10-30T14:10:29;22.02;;;9.23;;
19163;SDS011;9714;51.208;4.242;2022-10-30T14:13:14;24.27;;;9.50;;
19163;SDS011;9714;51.208;4.242;2022-10-30T14:15:50;27.70;;;9.70;;
19163;SDS011;9714;51.208;4.242;2022-10-30T14:21:28;22.60;;;9.23;;
19163;SDS011;9714;51.208;4.242;2022-10-30T14:24:04;25.95;;;9.45;;
19163;SDS011;9714;51.208;4.242;2022-10-30T14:26:43;25.88;;;8.85;;
19163;SDS011;9714;51.208;4.242;2022-10-30T14:35:29;26.13;;;9.13;;
19163;SDS011;9714;51.208;4.242;2022-10-30T14:41:05;13.35;;;4.88;;
19163;SDS011;9714;51.208;4.242;2022-10-30T14:43:51;17.58;;;4.80;;
19163;SDS011;9714;51.208;4.242;2022-10-30T14:46:32;15.00;;;4.28;;
19163;SDS011;9714;51.208;4.242;2022-10-30T14:49:26;11.73;;;3.42;;
19163;SDS011;9714;51.208;4.242;2022-10-30T14:55:05;13.80;;;3.43;;
19163;SDS011;9714;51.208;4.242;2022-10-30T14:57:50;15.83;;;3.70;;
19163;SDS011;9714;51.208;4.242;2022-10-30T15:03:16;15.10;;;3.03;;
19163;SDS011;9714;51.208;4.242;2022-10-30T15:05:50;14.77;;;3.67;;
19163;SDS011;9714;51.208;4.242;2022-10-30T15:08:32;11.53;;;3.20;;
19163;SDS011;9714;51.208;4.242;2022-10-30T15:11:14;20.63;;;2.97;;
19163;SDS011;9714;51.208;4.242;2022-10-30T15:13:51;10.23;;;2.70;;
19163;SDS011;9714;51.208;4.242;2022-10-30T15:16:21;12.60;;;3.17;;
19163;SDS011;9714;51.208;4.242;2022-10-30T15:18:54;15.90;;;2.57;;
19163;SDS011;9714;51.208;4.242;2022-10-30T15:21:25;14.50;;;2.87;;
19163;SDS011;9714;51.208;4.242;2022-10-30T15:23:57;12.30;;;3.17;;
19163;SDS011;9714;51.208;4.242;2022-10-30T15:26:28;15.77;;;3.37;;
19163;SDS011;9714;51.208;4.242;2022-10-30T15:28:59;19.33;;;4.00;;
19163;SDS011;9714;51.208;4.242;2022-10-30T15:31:28;15.33;;;3.23;;
19163;SDS011;9714;51.208;4.242;2022-10-30T15:33:57;14.30;;;3.40;;
19163;SDS011;9714;51.208;4.242;2022-10-30T15:36:25;16.30;;;3.97;;